ولاية سيدي بلعباس, الجزائر

12:31 PM CET on êواêر 31, 2015 (GMT +0100)
Es Senia | Change Station
CLOSE
Current Station
Airport
Location: Oran,
Elevation: 295 ft
Nearby Weather Stations

Elev 295 ft 35.63 °N, 0.60 °W | Updated 31 minutes ago

Mostly Cloudy
غائم كلياً
63 °F
Feels Like 63 °F
N
28
ريح متغير ريح from WSW
Gusts 41 mph

هذا اليوم
High -- | Low -- °F
--% Chance of Precip.
Yesterday
High -- | Low -- °F
Precip. -- في
8:02 AM 6:29 PM
الأحدب الأول, 89% visible
الضغط 29.62 في
وضوح الرؤية 6.2 أميال
سحابات Few 1300 ft
غائم كلياً 3000 ft
نقطة الندى 52 °F
الرطوبة 68%
Rainfall 0.00 في
عمق الثلج Not available.
الأشعة فوق البنفسجية 2 out of 12
Pollen Not available.
جودة الهواء Not available.
Flu Activity Not available.
METAR DAOO 311100Z 25024G36KT 9999 FEW013 BKN030 17/11 Q1003

More Conditions Fewer Conditions

الضغط 29.62 في
وضوح الرؤية 6.2 أميال
سحابات Few 1300 ft
غائم كلياً 3000 ft
نقطة الندى 52 °F
الرطوبة 68%
Rainfall 0.00 في
عمق الثلج Not available.
الأشعة فوق البنفسجية 2 out of 12
Pollen Not available.
جودة الهواء Not available.
Flu Activity Not available.
METAR DAOO 311100Z 25024G36KT 9999 FEW013 BKN030 17/11 Q1003

More Conditions Fewer Conditions

10-Day Weather Forecast

Almanac

علم الفلك

Jan. 31, 2015 Rise Set
Actual Time
Civil Twilight
Nautical Twilight
Astronomical Twilight
قمر
Length Of Visible Light
طول الیوم
Tomorrow will be .
, % of the Moon is Illuminated

Today's Extremes

Country Highs Country Lows

Community

WunderPhotos

Upload Photos

1,792,032 photos uploaded!

WunderBlogs® & News

Nearby

جودة الهواء

  جودة الهواء AQ Index Pollutant
Not available.

عمق الثلج

Station Depth Elevation

Earthquake Activity

City Distance Mag. Time & Date
Minimum magnitude displayed is 2.5.

Coastal Water Temperatures

مكان درجات الحرارة

Nearby Weather Stations